Airfield :
LOGIN :

Register | Disclaimer

   EN    FR    IT 

 










Legend :    VFR   Marginal VFR   IFR   Intensive IFR   Very Intensive IFR
Visi :
Ceiling :
>= 8 km
>= 3000ft
5 to 8 km
1000 to 3000 ft
1500m to 5 km
500 to 1000 ft
800 to 1500m
200 to 500 ft
< 800m
< 200 ft
Symbols :   Thunderstorms  Fog  Heavy snow  Heavy precipitations  Wind > 20 kt
SIGMETs :     Misc.  Thunderstorms  Icing  Turbulence  Mountain Waves  Volcanic Ashes






- Airport Elevation : 1890 ft
- IATA code : MEK


GMFM - Bassatine

CURRENT METAR :
  • 301000Z 10005KT 070V130 CAVOK 08/03 Q1021 NOSIG

EXPIRED METARs :
  • 300900Z 10005KT 080V140 CAVOK 05/01 Q1021 NOSIG
  • 300800Z 11009KT CAVOK 02/M00 Q1020 NOSIG

TAF TAF GMFM
Valid from the 30 at 06:00 until the 31 at 12:00 UTC


300500Z 3006/3112 09009KT CAVOK
PROB30
TEMPO 3017/3020 -RA SCT013 BKN016



MET'MAP, your aeronautical weather chart ! - Copyright ORBIFLY December 2007 - Disclaimer

ORBIFLY MET'MAP TEAM :

Programming & Development : Alexandra Zaïnal
Original concept : Baudouin d'Aumeries
Technical & hardware support : Manuel Goepfert
Assistance : Marc-Olivier Méhu




SOURCES & CREDITS :

   NOAA